Umatac, Guam
Current Conditions -  °F | °C
As of 9:54 AM on Monday 26 Jan 2015 (Local Time) from PGUM Reporting Station
Broken Clouds Broken Clouds  
Wind Chill: 85°   Ceiling: 3000
Heat Index: 92°   Visibility: 10mi
Dew Point: 74°   Wind: 13mph
Humidity: 69%   Direction: 80°E
Pressure: 29.97"   Gusts: NA
Location:  13.3°N, 144.66°E
Report Text: PGUM 252354Z 08011KT 10SM SCT022 BKN030 29/23 A2997 RMK AO2 SLP139 T02940233 10294 20261 50006
Loading
Personal Weather Stations






























Interactive Weather Map New forecast layout! Learn more

10-Day Weather Forecast

Advertisements
Track Severe Weather on mobile